createdAt,value
2019-02-27T00:01:03.347Z,63.48
2019-02-27T00:03:33.079Z,64.12
2019-02-27T00:06:02.902Z,64.00
2019-02-27T00:08:32.849Z,64.23
2019-02-27T00:11:02.441Z,64.52
2019-02-27T00:13:32.059Z,64.81
2019-02-27T00:16:01.628Z,64.67
2019-02-27T00:18:31.381Z,65.03
2019-02-27T00:21:00.991Z,65.43
2019-02-27T00:23:30.601Z,65.14
2019-02-27T00:26:00.259Z,65.42
2019-02-27T00:28:29.855Z,65.99
2019-02-27T00:31:02.657Z,65.28
2019-02-27T00:33:32.685Z,65.37
2019-02-27T00:36:04.506Z,65.45
2019-02-27T00:38:33.836Z,65.03
2019-02-27T00:41:03.533Z,65.17
2019-02-27T00:43:33.090Z,64.90
2019-02-27T00:46:04.025Z,65.01
2019-02-27T00:48:33.621Z,64.80
2019-02-27T00:51:03.177Z,64.98
2019-02-27T00:53:32.834Z,65.02
2019-02-27T00:56:02.352Z,65.12
2019-02-27T00:58:31.963Z,65.01
2019-02-27T01:01:01.645Z,65.00
2019-02-27T01:03:31.335Z,64.47
2019-02-27T01:06:01.093Z,64.67
2019-02-27T01:08:30.939Z,65.17
2019-02-27T01:11:00.540Z,65.98
2019-02-27T01:13:31.295Z,65.72
2019-02-27T01:16:01.393Z,65.90
2019-02-27T01:18:31.443Z,66.23
2019-02-27T01:21:01.031Z,66.70
2019-02-27T01:23:30.987Z,67.17
2019-02-27T01:26:04.375Z,67.18
2019-02-27T01:28:33.967Z,67.45
2019-02-27T01:31:03.850Z,68.61
2019-02-27T01:33:37.747Z,68.23
2019-02-27T01:36:05.036Z,69.15
2019-02-27T01:38:37.611Z,69.22
2019-02-27T01:41:06.084Z,68.63
2019-02-27T01:43:36.908Z,69.19
2019-02-27T01:46:10.329Z,69.05
2019-02-27T01:48:43.001Z,69.26
2019-02-27T01:51:11.323Z,69.37
2019-02-27T01:53:41.258Z,69.51
2019-02-27T01:56:11.207Z,69.54
2019-02-27T01:58:43.479Z,69.61
2019-02-27T02:01:13.510Z,69.55
2019-02-27T02:03:47.214Z,69.52
2019-02-27T02:06:14.462Z,69.36
2019-02-27T02:08:47.992Z,69.29
2019-02-27T02:11:15.351Z,68.96
2019-02-27T02:14:07.481Z,69.72
2019-02-27T02:16:50.234Z,70.98
2019-02-27T02:19:54.035Z,70.61
2019-02-27T02:22:41.326Z,70.11
2019-02-27T02:25:46.979Z,69.59
2019-02-27T02:28:29.378Z,69.70
2019-02-27T02:31:31.797Z,70.29
2019-02-27T02:34:23.725Z,70.78
2019-02-27T02:37:33.730Z,70.29
2019-02-27T02:40:30.964Z,70.02
2019-02-27T02:43:24.708Z,70.55
2019-02-27T02:46:08.031Z,70.73
2019-02-27T02:49:08.312Z,71.30
2019-02-27T02:52:19.957Z,71.11
2019-02-27T02:55:20.062Z,70.75
2019-02-27T02:58:15.031Z,70.94
2019-02-27T03:01:05.863Z,71.31
2019-02-27T03:03:46.004Z,70.53
2019-02-27T03:06:54.951Z,71.17
2019-02-27T03:10:07.432Z,70.59
2019-02-27T03:13:13.458Z,70.71
2019-02-27T03:16:08.776Z,72.94
2019-02-27T03:19:06.640Z,71.66
2019-02-27T03:22:03.743Z,71.66
2019-02-27T03:25:04.381Z,71.37
2019-02-27T03:28:07.934Z,71.67
2019-02-27T03:30:49.162Z,71.75
2019-02-27T03:33:32.193Z,71.55
2019-02-27T03:36:29.088Z,71.43
2019-02-27T03:39:23.780Z,71.21
2019-02-27T03:42:18.887Z,70.72
2019-02-27T03:45:07.865Z,71.81
2019-02-27T03:47:57.248Z,70.75
2019-02-27T03:50:53.839Z,71.45
2019-02-27T03:53:31.082Z,71.41
2019-02-27T03:56:43.525Z,72.34
2019-02-27T03:59:42.052Z,72.25
2019-02-27T04:02:42.863Z,73.45
2019-02-27T04:05:46.310Z,73.42
2019-02-27T04:08:45.060Z,72.54
2019-02-27T04:11:15.100Z,72.60
2019-02-27T04:13:44.693Z,72.05
2019-02-27T04:16:14.200Z,71.48
2019-02-27T04:18:44.036Z,71.55
2019-02-27T04:21:13.759Z,71.16
2019-02-27T04:23:47.976Z,72.67
2019-02-27T04:26:14.725Z,72.73
2019-02-27T04:28:44.385Z,71.85
2019-02-27T04:31:13.892Z,70.72
2019-02-27T04:33:43.526Z,70.88
2019-02-27T04:36:13.497Z,70.71
2019-02-27T04:38:46.099Z,71.24
2019-02-27T04:41:18.900Z,71.12
2019-02-27T04:43:48.438Z,70.53
2019-02-27T04:46:18.905Z,70.89
2019-02-27T04:48:49.518Z,72.07
2019-02-27T04:51:19.307Z,71.69
2019-02-27T04:53:48.900Z,71.47
2019-02-27T04:56:23.096Z,71.39
2019-02-27T04:58:49.919Z,71.29
2019-02-27T05:01:19.637Z,71.60
2019-02-27T05:03:49.801Z,71.64
2019-02-27T05:06:19.351Z,72.43
2019-02-27T05:08:48.959Z,72.74
2019-02-27T05:11:18.568Z,72.55
2019-02-27T05:13:48.315Z,72.26
2019-02-27T05:16:18.029Z,72.00
2019-02-27T05:18:47.651Z,72.04
2019-02-27T05:21:19.229Z,72.29
2019-02-27T05:23:48.596Z,72.13
2019-02-27T05:26:18.359Z,72.79
2019-02-27T05:28:47.867Z,72.46
2019-02-27T05:31:19.019Z,73.25
2019-02-27T05:33:48.949Z,73.52
2019-02-27T05:36:18.541Z,74.47
2019-02-27T05:38:48.095Z,74.90
2019-02-27T05:41:17.728Z,74.37
2019-02-27T05:43:48.530Z,73.80
2019-02-27T05:46:20.774Z,73.70
2019-02-27T05:48:50.913Z,74.29
2019-02-27T05:51:22.016Z,75.04
2019-02-27T05:53:51.610Z,74.50
2019-02-27T05:56:21.232Z,74.32
2019-02-27T05:58:50.888Z,74.40
2019-02-27T06:01:22.270Z,74.68
2019-02-27T06:03:53.697Z,74.36
2019-02-27T06:06:23.442Z,74.40
2019-02-27T06:08:53.025Z,75.11
2019-02-27T06:11:22.741Z,74.94
2019-02-27T06:13:52.449Z,74.36
2019-02-27T06:16:22.037Z,74.32
2019-02-27T06:18:56.052Z,75.03
2019-02-27T06:21:22.961Z,74.98
2019-02-27T06:23:52.672Z,74.87
2019-02-27T06:26:22.548Z,74.23
2019-02-27T06:28:52.541Z,73.63
2019-02-27T06:31:22.321Z,72.10
2019-02-27T06:33:52.148Z,70.76
2019-02-27T06:36:22.306Z,69.11
2019-02-27T06:38:51.977Z,67.43
2019-02-27T06:41:21.688Z,66.27
2019-02-27T06:43:53.977Z,65.90
2019-02-27T06:46:23.719Z,66.67
2019-02-27T06:48:53.790Z,64.22
2019-02-27T06:51:23.460Z,62.95
2019-02-27T06:53:54.561Z,60.05
2019-02-27T06:56:24.373Z,59.32
2019-02-27T06:58:54.198Z,57.15
2019-02-27T07:01:23.931Z,54.92
2019-02-27T07:03:54.285Z,52.32
2019-02-27T07:06:23.989Z,49.64
2019-02-27T07:08:54.149Z,47.70
2019-02-27T07:11:24.313Z,46.09
2019-02-27T07:13:54.060Z,44.94
2019-02-27T07:16:23.880Z,45.78
2019-02-27T07:18:53.661Z,44.82
2019-02-27T07:21:25.062Z,43.02
2019-02-27T07:23:57.958Z,42.40
2019-02-27T07:26:26.678Z,40.31
2019-02-27T07:28:56.404Z,38.87
2019-02-27T07:31:26.131Z,39.06
2019-02-27T07:33:55.874Z,38.16
2019-02-27T07:36:25.454Z,38.60
2019-02-27T07:38:57.465Z,38.37
2019-02-27T07:41:29.674Z,37.55
2019-02-27T07:43:59.387Z,37.23
2019-02-27T07:46:29.239Z,36.96
2019-02-27T07:49:01.406Z,36.85
2019-02-27T07:51:30.610Z,35.18
2019-02-27T07:54:00.167Z,32.79
2019-02-27T07:56:29.799Z,32.43
2019-02-27T07:58:59.616Z,31.17
2019-02-27T08:01:29.237Z,31.49
2019-02-27T08:03:59.034Z,30.62
2019-02-27T08:06:28.590Z,29.45
2019-02-27T08:08:58.325Z,29.03
2019-02-27T08:11:28.129Z,27.72
2019-02-27T08:13:57.759Z,28.21
2019-02-27T08:16:27.437Z,27.90
2019-02-27T08:18:57.070Z,27.51
2019-02-27T08:21:26.582Z,27.95
2019-02-27T08:23:56.434Z,29.68
2019-02-27T08:29:25.501Z,25.33
2019-02-27T08:32:00.693Z,24.75
2019-02-27T08:34:27.816Z,24.45
2019-02-27T08:36:58.678Z,23.63
2019-02-27T08:39:28.364Z,23.40
2019-02-27T08:41:57.996Z,23.62
2019-02-27T08:44:28.627Z,25.43
2019-02-27T08:46:58.263Z,26.70
2019-02-27T08:49:28.053Z,25.62
2019-02-27T08:51:58.479Z,23.46
2019-02-27T08:54:32.229Z,23.56
2019-02-27T08:57:01.094Z,22.43
2019-02-27T08:59:31.145Z,21.46
2019-02-27T09:02:00.961Z,20.88
2019-02-27T09:04:32.097Z,20.80
2019-02-27T09:07:02.855Z,18.80
2019-02-27T09:09:33.021Z,18.50
2019-02-27T09:12:03.188Z,19.15
2019-02-27T09:14:33.795Z,17.58
2019-02-27T09:17:03.433Z,16.81
2019-02-27T09:19:33.041Z,17.70
2019-02-27T09:22:03.112Z,17.17
2019-02-27T09:24:33.194Z,17.06
2019-02-27T09:27:02.811Z,17.94
2019-02-27T09:29:32.362Z,17.17
2019-02-27T09:32:01.875Z,16.55
2019-02-27T09:34:31.612Z,16.84
2019-02-27T09:37:01.816Z,15.46
2019-02-27T09:39:31.971Z,16.04
2019-02-27T09:42:01.765Z,15.66
2019-02-27T09:44:31.298Z,15.52
2019-02-27T09:47:00.901Z,15.30
2019-02-27T09:49:30.447Z,14.72
2019-02-27T09:51:59.995Z,14.75
2019-02-27T09:54:29.638Z,13.63
2019-02-27T09:57:02.082Z,13.34
2019-02-27T09:59:31.479Z,12.95
2019-02-27T10:02:01.145Z,11.11
2019-02-27T10:04:30.679Z,11.12
2019-02-27T10:07:00.290Z,10.02
2019-02-27T10:09:29.967Z,9.17
2019-02-27T10:11:59.521Z,9.54
2019-02-27T10:14:29.086Z,10.61
2019-02-27T10:16:58.661Z,9.92
2019-02-27T10:19:28.285Z,10.06
2019-02-27T10:21:58.966Z,9.54
2019-02-27T10:24:28.485Z,9.29
2019-02-27T10:26:58.023Z,8.76
2019-02-27T10:29:27.583Z,9.36
2019-02-27T10:31:58.241Z,9.21
2019-02-27T10:34:31.665Z,8.50
2019-02-27T10:37:04.076Z,8.07
2019-02-27T10:39:36.915Z,7.92
2019-02-27T10:42:05.152Z,8.87
2019-02-27T10:44:34.866Z,8.78
2019-02-27T10:47:04.542Z,8.22
2019-02-27T10:49:34.136Z,8.41
2019-02-27T10:52:03.739Z,9.08
2019-02-27T10:54:52.694Z,8.63
2019-02-27T10:57:22.443Z,8.93
2019-02-27T10:59:53.722Z,8.02
2019-02-27T11:02:23.697Z,7.44
2019-02-27T11:04:55.058Z,7.34
2019-02-27T11:07:24.694Z,7.93
2019-02-27T11:09:54.813Z,8.50
2019-02-27T11:12:26.833Z,8.64
2019-02-27T11:14:55.905Z,8.85
2019-02-27T11:17:25.567Z,9.37
2019-02-27T11:19:55.210Z,8.24
2019-02-27T11:22:24.861Z,8.08
2019-02-27T11:24:54.476Z,7.63
2019-02-27T11:27:24.128Z,7.59
2019-02-27T11:29:53.779Z,7.45
2019-02-27T11:32:24.043Z,7.23
2019-02-27T11:34:53.910Z,8.35
2019-02-27T11:37:23.443Z,8.46
2019-02-27T11:39:52.980Z,8.84
2019-02-27T11:42:23.088Z,8.74
2019-02-27T11:44:52.691Z,7.67
2019-02-27T11:47:22.250Z,7.44
2019-02-27T11:49:52.427Z,6.57
2019-02-27T11:52:21.976Z,6.35
2019-02-27T11:54:52.088Z,6.40
2019-02-27T11:57:21.880Z,7.34
2019-02-27T11:59:51.567Z,6.87
2019-02-27T12:02:28.749Z,6.30
2019-02-27T12:04:55.284Z,6.19
2019-02-27T12:07:23.949Z,6.52
2019-02-27T12:09:53.626Z,6.04
2019-02-27T12:12:24.178Z,6.69
2019-02-27T12:14:54.063Z,6.83
2019-02-27T12:17:25.735Z,5.93
2019-02-27T12:19:55.665Z,5.68
2019-02-27T12:22:25.351Z,5.79
2019-02-27T12:24:55.013Z,5.42
2019-02-27T12:27:47.976Z,5.17
2019-02-27T12:30:00.126Z,4.82
2019-02-27T12:32:29.508Z,5.12
2019-02-27T12:34:59.092Z,4.77
2019-02-27T12:37:34.071Z,4.54
2019-02-27T12:40:00.288Z,4.54
2019-02-27T12:42:37.403Z,4.53
2019-02-27T12:45:02.907Z,4.50
2019-02-27T12:47:32.600Z,5.18
2019-02-27T12:50:02.371Z,5.00
2019-02-27T12:52:31.966Z,4.63
2019-02-27T12:55:01.806Z,4.46
2019-02-27T12:57:32.468Z,4.65
2019-02-27T13:00:02.564Z,4.68
2019-02-27T13:02:35.833Z,4.11
2019-02-27T13:05:08.680Z,4.21
2019-02-27T13:07:38.433Z,4.00
2019-02-27T13:10:15.527Z,3.74
2019-02-27T13:12:46.156Z,3.70
2019-02-27T13:15:19.230Z,4.15
2019-02-27T13:17:50.266Z,4.19
2019-02-27T13:20:29.790Z,4.31
2019-02-27T13:23:03.886Z,4.54
2019-02-27T13:25:31.575Z,4.45
2019-02-27T13:28:01.349Z,4.68
2019-02-27T13:30:31.890Z,4.50
2019-02-27T13:33:02.230Z,4.66
2019-02-27T13:35:32.392Z,4.86
2019-02-27T13:38:02.342Z,5.13
2019-02-27T13:40:35.758Z,4.93
2019-02-27T13:43:05.722Z,4.88
2019-02-27T13:45:35.554Z,5.26
2019-02-27T13:48:06.134Z,5.07
2019-02-27T13:50:36.199Z,5.13
2019-02-27T13:53:06.363Z,5.12
2019-02-27T13:55:35.950Z,4.91
2019-02-27T13:58:05.744Z,5.28
2019-02-27T14:00:38.176Z,5.93
2019-02-27T14:03:12.166Z,5.70
2019-02-27T14:05:40.507Z,5.86
2019-02-27T14:08:12.827Z,5.69
2019-02-27T14:10:44.376Z,6.49
2019-02-27T14:13:15.220Z,5.63
2019-02-27T14:15:45.037Z,5.05
2019-02-27T14:18:16.131Z,4.86
2019-02-27T14:20:46.121Z,5.95
2019-02-27T14:23:16.186Z,5.66
2019-02-27T14:25:45.935Z,5.32
2019-02-27T14:28:20.598Z,6.30
2019-02-27T14:30:52.992Z,6.21
2019-02-27T14:33:22.808Z,5.52
2019-02-27T14:35:52.576Z,6.08
2019-02-27T14:38:24.073Z,5.79
2019-02-27T14:40:53.704Z,6.02
2019-02-27T14:43:27.057Z,6.68
2019-02-27T14:45:54.650Z,6.93
2019-02-27T14:48:24.924Z,7.21
2019-02-27T14:50:54.582Z,6.33
2019-02-27T14:53:24.348Z,6.66
2019-02-27T14:55:53.951Z,7.52
2019-02-27T14:58:24.257Z,7.61
2019-02-27T15:00:54.905Z,6.39
2019-02-27T15:03:29.278Z,6.35
2019-02-27T15:05:55.783Z,6.87
2019-02-27T15:08:26.036Z,7.26
2019-02-27T15:10:55.895Z,7.50
2019-02-27T15:13:28.329Z,8.13
2019-02-27T15:15:59.167Z,8.82
2019-02-27T15:18:28.752Z,10.34
2019-02-27T15:20:58.358Z,9.06
2019-02-27T15:23:28.349Z,9.56
2019-02-27T15:25:58.111Z,9.18
2019-02-27T15:28:32.995Z,8.72
2019-02-27T15:30:59.814Z,9.04
2019-02-27T15:33:29.758Z,8.92
2019-02-27T15:35:59.578Z,9.47
2019-02-27T15:38:29.780Z,9.72
2019-02-27T15:41:02.430Z,9.89
2019-02-27T15:43:31.201Z,10.35
2019-02-27T15:46:01.173Z,10.86
2019-02-27T15:48:30.991Z,11.25
2019-02-27T15:51:00.813Z,11.32
2019-02-27T15:53:30.792Z,12.08
2019-02-27T15:56:05.410Z,12.97
2019-02-27T15:58:34.881Z,14.04
2019-02-27T16:01:04.628Z,14.60
2019-02-27T16:03:34.462Z,15.08
2019-02-27T16:06:05.583Z,15.64
2019-02-27T16:08:35.891Z,15.82
2019-02-27T16:11:05.812Z,16.34
2019-02-27T16:13:35.633Z,16.33
2019-02-27T16:16:05.967Z,16.39
2019-02-27T16:18:37.043Z,16.56
2019-02-27T16:21:07.527Z,16.79
2019-02-27T16:23:38.367Z,16.97
2019-02-27T16:26:08.358Z,16.89
2019-02-27T16:28:37.984Z,17.19
2019-02-27T16:31:07.709Z,17.19
2019-02-27T16:33:37.230Z,17.24
2019-02-27T16:36:06.954Z,17.50
2019-02-27T16:38:36.727Z,17.53
2019-02-27T16:41:06.825Z,17.64
2019-02-27T16:43:36.668Z,18.06
2019-02-27T16:46:08.760Z,18.32
2019-02-27T16:48:38.828Z,18.31
2019-02-27T16:51:08.668Z,18.59
2019-02-27T16:53:39.099Z,18.89
2019-02-27T16:56:12.022Z,18.97
2019-02-27T16:58:40.640Z,19.09
2019-02-27T17:01:11.010Z,19.25
2019-02-27T17:03:45.068Z,19.51
2019-02-27T17:06:17.174Z,19.43
2019-02-27T17:08:45.684Z,19.68
2019-02-27T17:11:15.455Z,19.57
2019-02-27T17:13:46.966Z,19.49
2019-02-27T17:16:17.243Z,19.47
2019-02-27T17:18:48.977Z,19.82
2019-02-27T17:21:22.131Z,19.93
2019-02-27T17:23:50.316Z,20.16
2019-02-27T17:26:19.903Z,20.29
2019-02-27T17:28:51.602Z,20.35
2019-02-27T17:31:22.850Z,20.52
2019-02-27T17:33:52.685Z,20.83
2019-02-27T17:36:22.596Z,20.89
2019-02-27T17:38:52.560Z,21.22
2019-02-27T17:41:22.368Z,21.45
2019-02-27T17:43:52.344Z,21.48
2019-02-27T17:46:24.868Z,21.89
2019-02-27T17:48:55.819Z,22.25
2019-02-27T17:51:25.823Z,22.75
2019-02-27T17:53:57.922Z,23.25
2019-02-27T17:56:27.856Z,23.59
2019-02-27T17:58:57.796Z,23.57
2019-02-27T18:01:28.624Z,23.74
2019-02-27T18:03:58.626Z,24.01
2019-02-27T18:06:28.228Z,24.45
2019-02-27T18:08:57.921Z,24.75
2019-02-27T18:11:27.536Z,25.18
2019-02-27T18:13:57.524Z,25.64
2019-02-27T18:16:27.967Z,25.89
2019-02-27T18:18:58.859Z,26.17
2019-02-27T18:21:33.384Z,26.93
2019-02-27T18:24:00.140Z,27.81
2019-02-27T18:26:29.755Z,28.18
2019-02-27T18:28:59.408Z,28.73
2019-02-27T18:31:29.366Z,28.99
2019-02-27T18:33:59.039Z,29.46
2019-02-27T18:36:28.717Z,30.08
2019-02-27T18:39:01.706Z,30.45
2019-02-27T18:41:29.861Z,30.75
2019-02-27T18:44:01.254Z,31.03
2019-02-27T18:46:31.546Z,31.33
2019-02-27T18:49:01.155Z,31.45
2019-02-27T18:51:34.218Z,31.53
2019-02-27T18:54:03.805Z,31.86
2019-02-27T18:56:34.177Z,32.17
2019-02-27T18:59:04.928Z,32.29
2019-02-27T19:01:36.331Z,32.53
2019-02-27T19:04:06.615Z,32.98
2019-02-27T19:06:36.437Z,32.96
2019-02-27T19:09:07.179Z,33.04
2019-02-27T19:11:39.648Z,33.87
2019-02-27T19:14:09.263Z,34.14
2019-02-27T19:16:41.030Z,33.87
2019-02-27T19:19:13.787Z,34.06
2019-02-27T19:21:42.069Z,34.66
2019-02-27T19:24:12.451Z,34.50
2019-02-27T19:26:44.342Z,34.79
2019-02-27T19:29:13.657Z,35.26
2019-02-27T19:31:43.749Z,35.72
2019-02-27T19:34:13.641Z,36.05
2019-02-27T19:36:43.254Z,35.85
2019-02-27T19:39:13.184Z,35.81
2019-02-27T19:41:42.754Z,36.16
2019-02-27T19:44:12.425Z,36.80
2019-02-27T19:46:42.313Z,37.28
2019-02-27T19:49:13.582Z,37.63
2019-02-27T19:51:45.025Z,37.95
2019-02-27T19:54:18.661Z,37.87
2019-02-27T19:56:48.603Z,38.43
2019-02-27T19:59:18.499Z,38.41
2019-02-27T20:01:49.216Z,38.86
2019-02-27T20:04:19.058Z,39.14
2019-02-27T20:06:51.342Z,39.50
2019-02-27T20:09:21.784Z,39.69
2019-02-27T20:11:51.532Z,40.13
2019-02-27T20:14:21.246Z,40.12
2019-02-27T20:16:54.948Z,40.62
2019-02-27T20:19:28.414Z,40.41
2019-02-27T20:21:55.993Z,40.83
2019-02-27T20:24:28.657Z,41.16
2019-02-27T20:27:00.527Z,41.51
2019-02-27T20:29:30.299Z,42.09
2019-02-27T20:32:01.783Z,42.38
2019-02-27T20:34:31.995Z,42.88
2019-02-27T20:37:03.318Z,43.27
2019-02-27T20:39:36.324Z,43.14
2019-02-27T20:42:07.806Z,43.71
2019-02-27T20:44:38.124Z,44.06
2019-02-27T20:47:08.966Z,44.49
2019-02-27T20:49:38.823Z,44.51
2019-02-27T20:52:14.522Z,44.34
2019-02-27T20:54:42.311Z,44.02
2019-02-27T20:57:12.418Z,44.87
2019-02-27T20:59:42.703Z,44.16
2019-02-27T21:02:12.788Z,44.01
2019-02-27T21:04:42.752Z,43.97
2019-02-27T21:07:21.876Z,44.35
2019-02-27T21:09:45.197Z,43.75
2019-02-27T21:12:16.100Z,44.57
2019-02-27T21:14:45.738Z,45.17
2019-02-27T21:17:16.477Z,44.98
2019-02-27T21:19:46.959Z,45.46
2019-02-27T21:22:17.261Z,44.90
2019-02-27T21:24:47.985Z,44.82
2019-02-27T21:27:18.726Z,44.84
2019-02-27T21:29:48.693Z,44.68
2019-02-27T21:32:18.292Z,44.83
2019-02-27T21:34:49.434Z,45.08
2019-02-27T21:37:21.765Z,44.76
2019-02-27T21:39:51.728Z,44.97
2019-02-27T21:42:21.313Z,44.60
2019-02-27T21:44:51.289Z,44.75
2019-02-27T21:47:21.031Z,44.85
2019-02-27T21:49:50.727Z,45.00
2019-02-27T21:52:22.468Z,45.00
2019-02-27T21:54:51.812Z,45.41
2019-02-27T21:57:22.928Z,45.31
2019-02-27T21:59:52.895Z,45.27
2019-02-27T22:02:27.307Z,45.11
2019-02-27T22:04:56.439Z,45.21
2019-02-27T22:07:26.315Z,45.86
2019-02-27T22:09:55.921Z,45.40
2019-02-27T22:12:27.204Z,45.62
2019-02-27T22:14:57.453Z,46.19
2019-02-27T22:17:27.147Z,45.81
2019-02-27T22:19:56.834Z,45.74
2019-02-27T22:22:26.994Z,45.76
2019-02-27T22:24:59.637Z,45.71
2019-02-27T22:27:29.428Z,45.72
2019-02-27T22:29:59.810Z,45.91
2019-02-27T22:32:30.235Z,46.00
2019-02-27T22:35:02.806Z,46.02
2019-02-27T22:37:31.521Z,45.89
2019-02-27T22:40:06.165Z,45.84
2019-02-27T22:42:33.053Z,46.19
2019-02-27T22:45:04.203Z,46.61
2019-02-27T22:47:34.786Z,46.79
2019-02-27T22:50:07.093Z,46.72
2019-02-27T22:52:37.792Z,46.69
2019-02-27T22:55:10.705Z,46.67
2019-02-27T22:57:40.034Z,46.84
2019-02-27T23:00:30.836Z,47.16
2019-02-27T23:03:00.519Z,47.28
2019-02-27T23:05:30.272Z,47.22
2019-02-27T23:08:00.504Z,47.12
2019-02-27T23:10:31.006Z,47.29
2019-02-27T23:13:01.289Z,47.40
2019-02-27T23:15:31.085Z,47.24
2019-02-27T23:18:02.612Z,47.81
2019-02-27T23:20:32.456Z,47.68
2019-02-27T23:23:03.323Z,47.96
2019-02-27T23:25:33.201Z,48.19
2019-02-27T23:28:02.958Z,48.37
2019-02-27T23:30:32.733Z,48.95
2019-02-27T23:33:03.043Z,49.28
2019-02-27T23:35:32.995Z,49.41
2019-02-27T23:38:03.934Z,49.98
2019-02-27T23:40:33.717Z,50.02
2019-02-27T23:43:03.607Z,50.42
2019-02-27T23:45:33.523Z,51.03
2019-02-27T23:48:03.259Z,50.95
2019-02-27T23:50:33.131Z,51.53
2019-02-27T23:53:02.915Z,51.59
2019-02-27T23:55:32.606Z,52.01
2019-02-27T23:58:02.226Z,51.56
